METAR Data
IDs: Format: Raw Decoded Include TAF

Data at: 0641 UTC 01 Aug 2021

LROP 010630Z 19003KT 150V250 CAVOK 28/19 Q1011 NOSIG